sensor_id;sensor_type;location;lat;lon;timestamp;P1;durP1;ratioP1;P2;durP2;ratioP2
25627;SDS011;40915;50.826;4.356;2024-03-08T00:02:16;20.87;;;12.83;;
25627;SDS011;40915;50.826;4.356;2024-03-08T00:04:41;23.00;;;13.23;;
25627;SDS011;40915;50.826;4.356;2024-03-08T00:07:07;21.83;;;12.60;;
25627;SDS011;40915;50.826;4.356;2024-03-08T00:09:33;20.70;;;13.23;;
25627;SDS011;40915;50.826;4.356;2024-03-08T00:11:58;22.37;;;12.73;;
25627;SDS011;40915;50.826;4.356;2024-03-08T00:14:24;22.37;;;12.87;;
25627;SDS011;40915;50.826;4.356;2024-03-08T00:16:50;23.10;;;13.10;;
25627;SDS011;40915;50.826;4.356;2024-03-08T00:19:19;19.97;;;12.57;;
25627;SDS011;40915;50.826;4.356;2024-03-08T00:21:45;22.47;;;13.73;;
25627;SDS011;40915;50.826;4.356;2024-03-08T00:24:10;23.10;;;13.37;;
25627;SDS011;40915;50.826;4.356;2024-03-08T00:26:37;24.80;;;13.03;;
25627;SDS011;40915;50.826;4.356;2024-03-08T00:29:02;21.93;;;12.90;;
25627;SDS011;40915;50.826;4.356;2024-03-08T00:31:28;23.50;;;13.17;;
25627;SDS011;40915;50.826;4.356;2024-03-08T00:33:56;22.33;;;13.63;;
25627;SDS011;40915;50.826;4.356;2024-03-08T00:36:22;21.00;;;12.83;;
25627;SDS011;40915;50.826;4.356;2024-03-08T00:38:47;24.53;;;13.10;;
25627;SDS011;40915;50.826;4.356;2024-03-08T00:41:13;20.80;;;13.03;;
25627;SDS011;40915;50.826;4.356;2024-03-08T00:43:39;22.37;;;13.83;;
25627;SDS011;40915;50.826;4.356;2024-03-08T00:46:04;24.37;;;13.83;;
25627;SDS011;40915;50.826;4.356;2024-03-08T00:48:30;20.80;;;12.53;;
25627;SDS011;40915;50.826;4.356;2024-03-08T00:50:56;23.03;;;13.20;;
25627;SDS011;40915;50.826;4.356;2024-03-08T00:53:22;23.90;;;13.77;;
25627;SDS011;40915;50.826;4.356;2024-03-08T00:55:48;21.60;;;13.30;;
25627;SDS011;40915;50.826;4.356;2024-03-08T00:58:13;23.40;;;13.90;;
25627;SDS011;40915;50.826;4.356;2024-03-08T01:00:40;22.97;;;13.17;;
25627;SDS011;40915;50.826;4.356;2024-03-08T01:03:05;22.57;;;13.53;;
25627;SDS011;40915;50.826;4.356;2024-03-08T01:05:31;26.07;;;14.17;;
25627;SDS011;40915;50.826;4.356;2024-03-08T01:07:57;24.27;;;14.57;;
25627;SDS011;40915;50.826;4.356;2024-03-08T01:10:23;21.83;;;12.83;;
25627;SDS011;40915;50.826;4.356;2024-03-08T01:12:48;21.70;;;13.07;;
25627;SDS011;40915;50.826;4.356;2024-03-08T01:15:14;22.10;;;13.30;;
25627;SDS011;40915;50.826;4.356;2024-03-08T01:17:40;22.27;;;13.80;;
25627;SDS011;40915;50.826;4.356;2024-03-08T01:20:06;21.63;;;13.20;;
25627;SDS011;40915;50.826;4.356;2024-03-08T01:22:36;23.60;;;13.23;;
25627;SDS011;40915;50.826;4.356;2024-03-08T01:25:01;21.23;;;13.47;;
25627;SDS011;40915;50.826;4.356;2024-03-08T01:27:29;22.13;;;13.50;;
25627;SDS011;40915;50.826;4.356;2024-03-08T01:29:56;21.30;;;13.53;;
25627;SDS011;40915;50.826;4.356;2024-03-08T01:32:21;25.40;;;14.43;;
25627;SDS011;40915;50.826;4.356;2024-03-08T01:34:48;24.80;;;14.40;;
25627;SDS011;40915;50.826;4.356;2024-03-08T01:37:14;24.27;;;14.13;;
25627;SDS011;40915;50.826;4.356;2024-03-08T01:39:39;21.87;;;13.87;;
25627;SDS011;40915;50.826;4.356;2024-03-08T01:42:05;23.13;;;13.60;;
25627;SDS011;40915;50.826;4.356;2024-03-08T01:44:31;27.13;;;14.83;;
25627;SDS011;40915;50.826;4.356;2024-03-08T01:46:56;23.60;;;14.77;;
25627;SDS011;40915;50.826;4.356;2024-03-08T01:49:22;24.93;;;14.80;;
25627;SDS011;40915;50.826;4.356;2024-03-08T01:51:50;23.37;;;14.67;;
25627;SDS011;40915;50.826;4.356;2024-03-08T01:54:16;24.37;;;14.67;;
25627;SDS011;40915;50.826;4.356;2024-03-08T01:56:44;24.93;;;14.43;;
25627;SDS011;40915;50.826;4.356;2024-03-08T01:59:11;24.90;;;14.43;;
25627;SDS011;40915;50.826;4.356;2024-03-08T02:01:37;25.37;;;15.33;;
25627;SDS011;40915;50.826;4.356;2024-03-08T02:04:03;23.20;;;15.13;;
25627;SDS011;40915;50.826;4.356;2024-03-08T02:06:31;25.47;;;16.10;;
25627;SDS011;40915;50.826;4.356;2024-03-08T02:08:57;26.13;;;15.43;;
25627;SDS011;40915;50.826;4.356;2024-03-08T02:11:23;21.30;;;14.27;;
25627;SDS011;40915;50.826;4.356;2024-03-08T02:13:48;21.50;;;15.33;;
25627;SDS011;40915;50.826;4.356;2024-03-08T02:16:20;24.87;;;15.43;;
25627;SDS011;40915;50.826;4.356;2024-03-08T02:18:46;23.93;;;14.60;;
25627;SDS011;40915;50.826;4.356;2024-03-08T02:21:12;22.77;;;15.53;;
25627;SDS011;40915;50.826;4.356;2024-03-08T02:23:38;21.93;;;15.43;;
25627;SDS011;40915;50.826;4.356;2024-03-08T02:26:05;23.07;;;15.40;;
25627;SDS011;40915;50.826;4.356;2024-03-08T02:28:32;25.90;;;16.00;;
25627;SDS011;40915;50.826;4.356;2024-03-08T02:30:59;23.17;;;14.83;;
25627;SDS011;40915;50.826;4.356;2024-03-08T02:33:26;23.13;;;14.90;;
25627;SDS011;40915;50.826;4.356;2024-03-08T02:35:52;22.30;;;15.67;;
25627;SDS011;40915;50.826;4.356;2024-03-08T02:38:18;26.37;;;15.10;;
25627;SDS011;40915;50.826;4.356;2024-03-08T02:40:46;26.37;;;15.90;;
25627;SDS011;40915;50.826;4.356;2024-03-08T02:43:14;23.97;;;15.77;;
25627;SDS011;40915;50.826;4.356;2024-03-08T02:45:41;23.20;;;15.93;;
25627;SDS011;40915;50.826;4.356;2024-03-08T02:48:07;26.07;;;16.13;;
25627;SDS011;40915;50.826;4.356;2024-03-08T02:50:33;25.83;;;15.60;;
25627;SDS011;40915;50.826;4.356;2024-03-08T02:53:02;25.77;;;16.60;;
25627;SDS011;40915;50.826;4.356;2024-03-08T02:55:28;23.53;;;15.30;;
25627;SDS011;40915;50.826;4.356;2024-03-08T02:57:54;25.73;;;16.27;;
25627;SDS011;40915;50.826;4.356;2024-03-08T03:00:20;27.70;;;16.63;;
25627;SDS011;40915;50.826;4.356;2024-03-08T03:02:48;24.77;;;16.20;;
25627;SDS011;40915;50.826;4.356;2024-03-08T03:05:19;26.40;;;16.20;;
25627;SDS011;40915;50.826;4.356;2024-03-08T03:07:48;24.67;;;16.77;;
25627;SDS011;40915;50.826;4.356;2024-03-08T03:10:14;26.60;;;16.50;;
25627;SDS011;40915;50.826;4.356;2024-03-08T03:12:42;25.40;;;16.67;;
25627;SDS011;40915;50.826;4.356;2024-03-08T03:15:08;25.13;;;16.57;;
25627;SDS011;40915;50.826;4.356;2024-03-08T03:17:33;26.40;;;16.83;;
25627;SDS011;40915;50.826;4.356;2024-03-08T03:19:59;26.53;;;17.27;;
25627;SDS011;40915;50.826;4.356;2024-03-08T03:22:30;23.53;;;16.60;;
25627;SDS011;40915;50.826;4.356;2024-03-08T03:24:55;24.43;;;17.20;;
25627;SDS011;40915;50.826;4.356;2024-03-08T03:27:23;24.47;;;17.30;;
25627;SDS011;40915;50.826;4.356;2024-03-08T03:29:49;25.77;;;17.27;;
25627;SDS011;40915;50.826;4.356;2024-03-08T03:32:17;26.57;;;16.93;;
25627;SDS011;40915;50.826;4.356;2024-03-08T03:34:43;25.37;;;17.03;;
25627;SDS011;40915;50.826;4.356;2024-03-08T03:37:09;24.87;;;16.33;;
25627;SDS011;40915;50.826;4.356;2024-03-08T03:39:38;27.60;;;18.00;;
25627;SDS011;40915;50.826;4.356;2024-03-08T03:42:14;25.87;;;16.87;;
25627;SDS011;40915;50.826;4.356;2024-03-08T03:44:41;24.93;;;16.93;;
25627;SDS011;40915;50.826;4.356;2024-03-08T03:47:09;25.40;;;17.80;;
25627;SDS011;40915;50.826;4.356;2024-03-08T03:49:35;27.10;;;17.40;;
25627;SDS011;40915;50.826;4.356;2024-03-08T03:52:00;23.00;;;16.83;;
25627;SDS011;40915;50.826;4.356;2024-03-08T03:54:26;26.03;;;17.87;;
25627;SDS011;40915;50.826;4.356;2024-03-08T03:56:52;28.20;;;18.23;;
25627;SDS011;40915;50.826;4.356;2024-03-08T03:59:18;25.07;;;16.87;;
25627;SDS011;40915;50.826;4.356;2024-03-08T04:01:44;33.50;;;21.80;;
25627;SDS011;40915;50.826;4.356;2024-03-08T04:04:09;25.03;;;18.20;;
25627;SDS011;40915;50.826;4.356;2024-03-08T04:06:37;28.40;;;18.50;;
25627;SDS011;40915;50.826;4.356;2024-03-08T04:09:03;24.40;;;18.27;;
25627;SDS011;40915;50.826;4.356;2024-03-08T04:11:29;26.63;;;18.23;;
25627;SDS011;40915;50.826;4.356;2024-03-08T04:13:55;25.80;;;18.20;;
25627;SDS011;40915;50.826;4.356;2024-03-08T04:16:21;26.63;;;18.67;;
25627;SDS011;40915;50.826;4.356;2024-03-08T04:18:47;23.90;;;17.73;;
25627;SDS011;40915;50.826;4.356;2024-03-08T04:21:13;28.00;;;18.80;;
25627;SDS011;40915;50.826;4.356;2024-03-08T04:23:39;27.30;;;18.13;;
25627;SDS011;40915;50.826;4.356;2024-03-08T04:26:05;26.47;;;18.20;;
25627;SDS011;40915;50.826;4.356;2024-03-08T04:28:32;25.57;;;18.00;;
25627;SDS011;40915;50.826;4.356;2024-03-08T04:30:58;29.17;;;18.07;;
25627;SDS011;40915;50.826;4.356;2024-03-08T04:33:25;27.60;;;18.83;;
25627;SDS011;40915;50.826;4.356;2024-03-08T04:35:51;25.13;;;18.00;;
25627;SDS011;40915;50.826;4.356;2024-03-08T04:38:18;27.93;;;18.67;;
25627;SDS011;40915;50.826;4.356;2024-03-08T04:40:44;27.47;;;19.00;;
25627;SDS011;40915;50.826;4.356;2024-03-08T04:43:10;23.63;;;17.83;;
25627;SDS011;40915;50.826;4.356;2024-03-08T04:45:36;27.13;;;18.53;;
25627;SDS011;40915;50.826;4.356;2024-03-08T04:48:02;26.90;;;18.27;;
25627;SDS011;40915;50.826;4.356;2024-03-08T04:50:28;26.83;;;18.00;;
25627;SDS011;40915;50.826;4.356;2024-03-08T04:52:55;30.93;;;18.33;;
25627;SDS011;40915;50.826;4.356;2024-03-08T04:55:21;27.53;;;18.80;;
25627;SDS011;40915;50.826;4.356;2024-03-08T04:57:48;27.23;;;18.20;;
25627;SDS011;40915;50.826;4.356;2024-03-08T05:00:14;26.07;;;17.33;;
25627;SDS011;40915;50.826;4.356;2024-03-08T05:02:40;28.33;;;18.23;;
25627;SDS011;40915;50.826;4.356;2024-03-08T05:05:10;27.27;;;18.53;;
25627;SDS011;40915;50.826;4.356;2024-03-08T05:07:40;27.37;;;18.77;;
25627;SDS011;40915;50.826;4.356;2024-03-08T05:10:06;28.10;;;18.77;;
25627;SDS011;40915;50.826;4.356;2024-03-08T05:12:32;30.03;;;18.90;;
25627;SDS011;40915;50.826;4.356;2024-03-08T05:14:58;29.80;;;18.90;;
25627;SDS011;40915;50.826;4.356;2024-03-08T05:17:25;27.80;;;18.00;;
25627;SDS011;40915;50.826;4.356;2024-03-08T05:19:51;29.03;;;18.70;;
25627;SDS011;40915;50.826;4.356;2024-03-08T05:22:16;24.80;;;17.80;;
25627;SDS011;40915;50.826;4.356;2024-03-08T05:24:43;25.77;;;18.13;;
25627;SDS011;40915;50.826;4.356;2024-03-08T05:27:09;27.57;;;17.27;;
25627;SDS011;40915;50.826;4.356;2024-03-08T05:29:35;25.37;;;17.77;;
25627;SDS011;40915;50.826;4.356;2024-03-08T05:32:00;32.57;;;19.20;;
25627;SDS011;40915;50.826;4.356;2024-03-08T05:34:27;25.17;;;17.63;;
25627;SDS011;40915;50.826;4.356;2024-03-08T05:36:53;27.10;;;17.70;;
25627;SDS011;40915;50.826;4.356;2024-03-08T05:39:19;29.57;;;18.27;;
25627;SDS011;40915;50.826;4.356;2024-03-08T05:41:45;29.67;;;18.57;;
25627;SDS011;40915;50.826;4.356;2024-03-08T05:44:11;29.10;;;18.37;;
25627;SDS011;40915;50.826;4.356;2024-03-08T05:46:38;28.10;;;19.17;;
25627;SDS011;40915;50.826;4.356;2024-03-08T05:49:04;29.80;;;19.00;;
25627;SDS011;40915;50.826;4.356;2024-03-08T05:51:33;29.20;;;18.17;;
25627;SDS011;40915;50.826;4.356;2024-03-08T05:54:04;28.07;;;18.13;;
25627;SDS011;40915;50.826;4.356;2024-03-08T05:56:36;29.43;;;18.63;;
25627;SDS011;40915;50.826;4.356;2024-03-08T05:59:02;28.63;;;18.40;;
25627;SDS011;40915;50.826;4.356;2024-03-08T06:01:29;29.63;;;19.17;;
25627;SDS011;40915;50.826;4.356;2024-03-08T06:03:56;29.53;;;18.60;;
25627;SDS011;40915;50.826;4.356;2024-03-08T06:06:25;28.70;;;18.13;;
25627;SDS011;40915;50.826;4.356;2024-03-08T06:08:51;28.40;;;17.27;;
25627;SDS011;40915;50.826;4.356;2024-03-08T06:11:18;27.23;;;18.17;;
25627;SDS011;40915;50.826;4.356;2024-03-08T06:13:45;26.27;;;17.93;;
25627;SDS011;40915;50.826;4.356;2024-03-08T06:16:11;26.33;;;18.17;;
25627;SDS011;40915;50.826;4.356;2024-03-08T06:18:37;30.47;;;18.53;;
25627;SDS011;40915;50.826;4.356;2024-03-08T06:21:04;26.60;;;18.27;;
25627;SDS011;40915;50.826;4.356;2024-03-08T06:23:33;26.10;;;17.63;;
25627;SDS011;40915;50.826;4.356;2024-03-08T06:25:59;30.40;;;18.80;;
25627;SDS011;40915;50.826;4.356;2024-03-08T06:28:24;28.20;;;18.93;;
25627;SDS011;40915;50.826;4.356;2024-03-08T06:30:50;28.13;;;18.87;;
25627;SDS011;40915;50.826;4.356;2024-03-08T06:33:16;27.97;;;18.30;;
25627;SDS011;40915;50.826;4.356;2024-03-08T06:35:43;26.53;;;17.40;;
25627;SDS011;40915;50.826;4.356;2024-03-08T06:38:08;27.97;;;19.13;;
25627;SDS011;40915;50.826;4.356;2024-03-08T06:40:34;27.83;;;18.17;;
25627;SDS011;40915;50.826;4.356;2024-03-08T06:43:00;30.40;;;18.53;;
25627;SDS011;40915;50.826;4.356;2024-03-08T06:45:25;29.10;;;18.37;;
25627;SDS011;40915;50.826;4.356;2024-03-08T06:47:51;28.80;;;17.23;;
25627;SDS011;40915;50.826;4.356;2024-03-08T06:50:17;26.37;;;17.77;;
25627;SDS011;40915;50.826;4.356;2024-03-08T06:52:42;32.93;;;18.10;;
25627;SDS011;40915;50.826;4.356;2024-03-08T06:55:09;28.07;;;17.93;;
25627;SDS011;40915;50.826;4.356;2024-03-08T06:57:38;25.23;;;16.97;;
25627;SDS011;40915;50.826;4.356;2024-03-08T07:00:06;27.57;;;17.43;;
25627;SDS011;40915;50.826;4.356;2024-03-08T07:02:36;26.87;;;17.77;;
25627;SDS011;40915;50.826;4.356;2024-03-08T07:05:04;27.77;;;18.13;;
25627;SDS011;40915;50.826;4.356;2024-03-08T07:07:31;27.37;;;18.00;;
25627;SDS011;40915;50.826;4.356;2024-03-08T07:09:58;27.23;;;16.93;;
25627;SDS011;40915;50.826;4.356;2024-03-08T07:12:24;29.00;;;16.93;;
25627;SDS011;40915;50.826;4.356;2024-03-08T07:14:51;28.30;;;17.43;;
25627;SDS011;40915;50.826;4.356;2024-03-08T07:17:17;26.00;;;17.63;;
25627;SDS011;40915;50.826;4.356;2024-03-08T07:19:42;26.27;;;17.03;;
25627;SDS011;40915;50.826;4.356;2024-03-08T07:22:08;27.73;;;16.60;;
25627;SDS011;40915;50.826;4.356;2024-03-08T07:24:37;25.33;;;16.97;;
25627;SDS011;40915;50.826;4.356;2024-03-08T07:27:23;24.67;;;16.63;;
25627;SDS011;40915;50.826;4.356;2024-03-08T07:29:48;24.07;;;16.37;;
25627;SDS011;40915;50.826;4.356;2024-03-08T07:32:14;24.37;;;16.87;;
25627;SDS011;40915;50.826;4.356;2024-03-08T07:34:46;27.93;;;16.63;;
25627;SDS011;40915;50.826;4.356;2024-03-08T07:37:14;24.63;;;16.50;;
25627;SDS011;40915;50.826;4.356;2024-03-08T07:39:39;24.23;;;16.27;;
25627;SDS011;40915;50.826;4.356;2024-03-08T07:42:05;28.37;;;16.43;;
25627;SDS011;40915;50.826;4.356;2024-03-08T07:44:31;21.67;;;15.37;;
25627;SDS011;40915;50.826;4.356;2024-03-08T07:46:57;27.50;;;16.90;;
25627;SDS011;40915;50.826;4.356;2024-03-08T07:49:23;26.50;;;16.67;;
25627;SDS011;40915;50.826;4.356;2024-03-08T07:51:49;26.03;;;17.23;;
25627;SDS011;40915;50.826;4.356;2024-03-08T07:54:15;24.57;;;16.60;;
25627;SDS011;40915;50.826;4.356;2024-03-08T07:56:41;23.23;;;16.80;;
25627;SDS011;40915;50.826;4.356;2024-03-08T07:59:07;25.77;;;17.17;;
25627;SDS011;40915;50.826;4.356;2024-03-08T08:01:33;24.47;;;16.40;;
25627;SDS011;40915;50.826;4.356;2024-03-08T08:04:00;29.30;;;17.73;;
25627;SDS011;40915;50.826;4.356;2024-03-08T08:06:26;22.70;;;15.73;;
25627;SDS011;40915;50.826;4.356;2024-03-08T08:08:52;27.87;;;17.10;;
25627;SDS011;40915;50.826;4.356;2024-03-08T08:11:18;24.77;;;17.13;;
25627;SDS011;40915;50.826;4.356;2024-03-08T08:13:45;24.53;;;16.27;;
25627;SDS011;40915;50.826;4.356;2024-03-08T08:16:11;25.73;;;16.80;;
25627;SDS011;40915;50.826;4.356;2024-03-08T08:18:38;25.80;;;15.90;;
25627;SDS011;40915;50.826;4.356;2024-03-08T08:21:04;26.70;;;16.67;;
25627;SDS011;40915;50.826;4.356;2024-03-08T08:23:31;26.37;;;16.60;;
25627;SDS011;40915;50.826;4.356;2024-03-08T08:26:00;30.40;;;17.17;;
25627;SDS011;40915;50.826;4.356;2024-03-08T08:28:28;25.23;;;16.33;;
25627;SDS011;40915;50.826;4.356;2024-03-08T08:30:54;26.43;;;16.23;;
25627;SDS011;40915;50.826;4.356;2024-03-08T08:33:20;25.70;;;16.23;;
25627;SDS011;40915;50.826;4.356;2024-03-08T08:35:45;25.67;;;16.07;;
25627;SDS011;40915;50.826;4.356;2024-03-08T08:38:12;23.43;;;15.70;;
25627;SDS011;40915;50.826;4.356;2024-03-08T08:40:38;23.87;;;15.53;;
25627;SDS011;40915;50.826;4.356;2024-03-08T08:43:04;25.70;;;17.33;;
25627;SDS011;40915;50.826;4.356;2024-03-08T08:45:30;23.33;;;15.20;;
25627;SDS011;40915;50.826;4.356;2024-03-08T08:47:56;24.97;;;15.67;;
25627;SDS011;40915;50.826;4.356;2024-03-08T08:50:24;22.40;;;15.60;;
25627;SDS011;40915;50.826;4.356;2024-03-08T08:52:51;23.60;;;15.53;;
25627;SDS011;40915;50.826;4.356;2024-03-08T08:55:20;26.23;;;15.70;;
25627;SDS011;40915;50.826;4.356;2024-03-08T08:57:50;27.27;;;15.77;;
25627;SDS011;40915;50.826;4.356;2024-03-08T09:00:17;25.60;;;16.00;;
25627;SDS011;40915;50.826;4.356;2024-03-08T09:02:46;26.73;;;16.30;;
25627;SDS011;40915;50.826;4.356;2024-03-08T09:05:16;24.87;;;14.90;;
25627;SDS011;40915;50.826;4.356;2024-03-08T09:07:42;21.53;;;15.07;;
25627;SDS011;40915;50.826;4.356;2024-03-08T09:10:09;24.07;;;15.60;;
25627;SDS011;40915;50.826;4.356;2024-03-08T09:12:37;22.87;;;15.03;;
25627;SDS011;40915;50.826;4.356;2024-03-08T09:15:05;23.77;;;15.40;;
25627;SDS011;40915;50.826;4.356;2024-03-08T09:17:36;24.27;;;15.27;;
25627;SDS011;40915;50.826;4.356;2024-03-08T09:20:05;23.43;;;15.43;;
25627;SDS011;40915;50.826;4.356;2024-03-08T09:22:35;23.13;;;15.30;;
25627;SDS011;40915;50.826;4.356;2024-03-08T09:25:01;20.60;;;14.70;;
25627;SDS011;40915;50.826;4.356;2024-03-08T09:27:30;24.40;;;14.63;;
25627;SDS011;40915;50.826;4.356;2024-03-08T09:29:56;25.37;;;15.27;;
25627;SDS011;40915;50.826;4.356;2024-03-08T09:32:21;22.33;;;14.63;;
25627;SDS011;40915;50.826;4.356;2024-03-08T09:34:47;26.13;;;15.17;;
25627;SDS011;40915;50.826;4.356;2024-03-08T09:37:13;21.97;;;14.50;;
25627;SDS011;40915;50.826;4.356;2024-03-08T09:39:39;19.93;;;14.47;;
25627;SDS011;40915;50.826;4.356;2024-03-08T09:42:04;23.40;;;15.00;;
25627;SDS011;40915;50.826;4.356;2024-03-08T09:44:31;21.20;;;14.13;;
25627;SDS011;40915;50.826;4.356;2024-03-08T09:46:57;21.33;;;14.20;;
25627;SDS011;40915;50.826;4.356;2024-03-08T09:49:24;19.03;;;13.63;;
25627;SDS011;40915;50.826;4.356;2024-03-08T09:51:49;19.93;;;13.87;;
25627;SDS011;40915;50.826;4.356;2024-03-08T09:54:16;19.23;;;13.13;;
25627;SDS011;40915;50.826;4.356;2024-03-08T09:56:42;19.83;;;13.40;;
25627;SDS011;40915;50.826;4.356;2024-03-08T09:59:09;22.40;;;14.67;;
25627;SDS011;40915;50.826;4.356;2024-03-08T10:01:53;20.60;;;13.77;;
25627;SDS011;40915;50.826;4.356;2024-03-08T10:04:23;20.37;;;14.13;;
25627;SDS011;40915;50.826;4.356;2024-03-08T10:06:49;21.53;;;14.40;;
25627;SDS011;40915;50.826;4.356;2024-03-08T10:09:15;21.00;;;14.07;;
25627;SDS011;40915;50.826;4.356;2024-03-08T10:11:41;23.17;;;14.07;;
25627;SDS011;40915;50.826;4.356;2024-03-08T10:14:08;22.57;;;14.23;;
25627;SDS011;40915;50.826;4.356;2024-03-08T10:16:34;20.80;;;13.77;;
25627;SDS011;40915;50.826;4.356;2024-03-08T10:19:00;20.50;;;13.70;;
25627;SDS011;40915;50.826;4.356;2024-03-08T10:21:26;22.03;;;13.43;;
25627;SDS011;40915;50.826;4.356;2024-03-08T10:23:52;23.30;;;14.10;;
25627;SDS011;40915;50.826;4.356;2024-03-08T10:26:18;20.03;;;13.43;;
25627;SDS011;40915;50.826;4.356;2024-03-08T10:28:49;19.50;;;13.70;;
25627;SDS011;40915;50.826;4.356;2024-03-08T10:31:16;19.20;;;13.83;;
25627;SDS011;40915;50.826;4.356;2024-03-08T10:33:44;19.50;;;13.43;;
25627;SDS011;40915;50.826;4.356;2024-03-08T10:36:10;20.60;;;14.40;;
25627;SDS011;40915;50.826;4.356;2024-03-08T10:38:38;21.07;;;13.87;;
25627;SDS011;40915;50.826;4.356;2024-03-08T10:41:10;21.10;;;13.90;;
25627;SDS011;40915;50.826;4.356;2024-03-08T10:43:58;22.17;;;14.13;;
25627;SDS011;40915;50.826;4.356;2024-03-08T10:46:53;20.97;;;13.53;;
25627;SDS011;40915;50.826;4.356;2024-03-08T10:49:38;19.03;;;13.53;;
25627;SDS011;40915;50.826;4.356;2024-03-08T10:52:11;19.60;;;13.30;;
25627;SDS011;40915;50.826;4.356;2024-03-08T10:54:38;19.20;;;12.50;;
25627;SDS011;40915;50.826;4.356;2024-03-08T10:57:06;20.53;;;14.40;;
25627;SDS011;40915;50.826;4.356;2024-03-08T10:59:34;19.43;;;13.77;;
25627;SDS011;40915;50.826;4.356;2024-03-08T11:02:00;20.70;;;13.57;;
25627;SDS011;40915;50.826;4.356;2024-03-08T11:04:26;18.67;;;12.70;;
25627;SDS011;40915;50.826;4.356;2024-03-08T11:06:54;20.13;;;13.23;;
25627;SDS011;40915;50.826;4.356;2024-03-08T11:09:33;18.93;;;13.33;;
25627;SDS011;40915;50.826;4.356;2024-03-08T11:14:55;21.67;;;13.23;;
25627;SDS011;40915;50.826;4.356;2024-03-08T11:17:25;19.03;;;13.23;;
25627;SDS011;40915;50.826;4.356;2024-03-08T11:20:15;21.70;;;13.37;;
25627;SDS011;40915;50.826;4.356;2024-03-08T11:22:55;18.80;;;13.67;;
25627;SDS011;40915;50.826;4.356;2024-03-08T11:25:41;20.60;;;12.30;;
25627;SDS011;40915;50.826;4.356;2024-03-08T11:28:13;20.53;;;14.00;;
25627;SDS011;40915;50.826;4.356;2024-03-08T11:30:47;21.00;;;13.20;;
25627;SDS011;40915;50.826;4.356;2024-03-08T11:33:35;20.10;;;13.47;;
25627;SDS011;40915;50.826;4.356;2024-03-08T11:36:11;17.47;;;12.47;;
25627;SDS011;40915;50.826;4.356;2024-03-08T11:38:41;17.57;;;13.40;;
25627;SDS011;40915;50.826;4.356;2024-03-08T11:41:13;20.27;;;13.50;;
25627;SDS011;40915;50.826;4.356;2024-03-08T11:43:40;18.53;;;13.43;;
25627;SDS011;40915;50.826;4.356;2024-03-08T11:46:12;19.02;;;13.05;;
25627;SDS011;40915;50.826;4.356;2024-03-08T11:48:40;21.70;;;13.55;;
25627;SDS011;40915;50.826;4.356;2024-03-08T11:51:13;16.95;;;12.00;;
25627;SDS011;40915;50.826;4.356;2024-03-08T11:53:40;19.10;;;12.73;;
25627;SDS011;40915;50.826;4.356;2024-03-08T11:56:10;19.70;;;12.60;;
25627;SDS011;40915;50.826;4.356;2024-03-08T11:58:37;17.55;;;12.27;;
25627;SDS011;40915;50.826;4.356;2024-03-08T12:01:06;17.05;;;12.35;;
25627;SDS011;40915;50.826;4.356;2024-03-08T12:03:39;20.77;;;13.02;;
25627;SDS011;40915;50.826;4.356;2024-03-08T12:06:07;20.70;;;14.35;;
25627;SDS011;40915;50.826;4.356;2024-03-08T12:08:36;17.80;;;12.65;;
25627;SDS011;40915;50.826;4.356;2024-03-08T12:11:04;17.75;;;12.07;;
25627;SDS011;40915;50.826;4.356;2024-03-08T12:13:34;19.08;;;13.15;;
25627;SDS011;40915;50.826;4.356;2024-03-08T12:16:08;20.13;;;13.30;;
25627;SDS011;40915;50.826;4.356;2024-03-08T12:18:37;18.92;;;13.10;;
25627;SDS011;40915;50.826;4.356;2024-03-08T12:21:06;22.65;;;13.25;;
25627;SDS011;40915;50.826;4.356;2024-03-08T12:23:33;19.30;;;12.65;;
25627;SDS011;40915;50.826;4.356;2024-03-08T12:26:10;16.17;;;11.57;;
25627;SDS011;40915;50.826;4.356;2024-03-08T12:28:42;17.95;;;12.48;;
25627;SDS011;40915;50.826;4.356;2024-03-08T12:31:13;17.50;;;12.20;;
25627;SDS011;40915;50.826;4.356;2024-03-08T12:33:51;17.88;;;12.65;;
25627;SDS011;40915;50.826;4.356;2024-03-08T12:36:20;17.98;;;11.88;;
25627;SDS011;40915;50.826;4.356;2024-03-08T12:38:49;18.20;;;12.02;;
25627;SDS011;40915;50.826;4.356;2024-03-08T12:41:15;14.82;;;11.25;;
25627;SDS011;40915;50.826;4.356;2024-03-08T12:43:45;17.25;;;12.55;;
25627;SDS011;40915;50.826;4.356;2024-03-08T12:46:16;18.88;;;13.43;;
25627;SDS011;40915;50.826;4.356;2024-03-08T12:48:45;17.98;;;12.18;;
25627;SDS011;40915;50.826;4.356;2024-03-08T12:51:20;17.23;;;12.75;;
25627;SDS011;40915;50.826;4.356;2024-03-08T12:53:46;18.88;;;12.38;;
25627;SDS011;40915;50.826;4.356;2024-03-08T12:56:34;18.20;;;11.88;;
25627;SDS011;40915;50.826;4.356;2024-03-08T12:59:02;18.83;;;11.57;;
25627;SDS011;40915;50.826;4.356;2024-03-08T13:01:35;16.92;;;11.95;;
25627;SDS011;40915;50.826;4.356;2024-03-08T13:04:04;18.27;;;12.02;;
25627;SDS011;40915;50.826;4.356;2024-03-08T13:06:32;15.07;;;11.25;;
25627;SDS011;40915;50.826;4.356;2024-03-08T13:08:58;18.58;;;12.38;;
25627;SDS011;40915;50.826;4.356;2024-03-08T13:11:26;20.80;;;12.18;;
25627;SDS011;40915;50.826;4.356;2024-03-08T13:13:55;17.67;;;12.32;;
25627;SDS011;40915;50.826;4.356;2024-03-08T13:16:20;17.63;;;12.23;;
25627;SDS011;40915;50.826;4.356;2024-03-08T13:18:47;16.08;;;11.15;;
25627;SDS011;40915;50.826;4.356;2024-03-08T13:21:15;16.65;;;11.77;;
25627;SDS011;40915;50.826;4.356;2024-03-08T13:23:44;14.65;;;11.25;;
25627;SDS011;40915;50.826;4.356;2024-03-08T13:26:12;18.13;;;12.05;;
25627;SDS011;40915;50.826;4.356;2024-03-08T13:28:41;18.73;;;12.55;;
25627;SDS011;40915;50.826;4.356;2024-03-08T13:31:07;16.30;;;11.75;;
25627;SDS011;40915;50.826;4.356;2024-03-08T13:33:35;18.02;;;11.85;;
25627;SDS011;40915;50.826;4.356;2024-03-08T13:36:10;16.85;;;11.68;;
25627;SDS011;40915;50.826;4.356;2024-03-08T13:38:46;17.05;;;10.82;;
25627;SDS011;40915;50.826;4.356;2024-03-08T13:41:13;15.00;;;11.85;;
25627;SDS011;40915;50.826;4.356;2024-03-08T13:43:41;21.08;;;11.90;;
25627;SDS011;40915;50.826;4.356;2024-03-08T13:46:08;16.90;;;11.77;;
25627;SDS011;40915;50.826;4.356;2024-03-08T13:48:35;16.63;;;10.98;;
25627;SDS011;40915;50.826;4.356;2024-03-08T13:51:02;19.15;;;11.52;;
25627;SDS011;40915;50.826;4.356;2024-03-08T13:53:32;15.98;;;11.07;;
25627;SDS011;40915;50.826;4.356;2024-03-08T13:55:59;16.48;;;12.20;;
25627;SDS011;40915;50.826;4.356;2024-03-08T13:58:26;20.00;;;11.48;;
25627;SDS011;40915;50.826;4.356;2024-03-08T14:00:52;16.52;;;11.43;;
25627;SDS011;40915;50.826;4.356;2024-03-08T14:03:18;16.27;;;11.43;;
25627;SDS011;40915;50.826;4.356;2024-03-08T14:05:45;17.50;;;11.00;;
25627;SDS011;40915;50.826;4.356;2024-03-08T14:08:11;17.08;;;10.60;;
25627;SDS011;40915;50.826;4.356;2024-03-08T14:10:37;17.60;;;11.98;;
25627;SDS011;40915;50.826;4.356;2024-03-08T14:13:03;16.08;;;11.32;;
25627;SDS011;40915;50.826;4.356;2024-03-08T14:15:31;15.63;;;11.25;;
25627;SDS011;40915;50.826;4.356;2024-03-08T14:17:57;15.23;;;10.98;;
25627;SDS011;40915;50.826;4.356;2024-03-08T14:20:23;18.17;;;11.20;;
25627;SDS011;40915;50.826;4.356;2024-03-08T14:22:52;18.98;;;11.50;;
25627;SDS011;40915;50.826;4.356;2024-03-08T14:25:21;16.10;;;10.60;;
25627;SDS011;40915;50.826;4.356;2024-03-08T14:27:49;16.40;;;10.75;;